Terminal Aerodrome Forecast
Issued by NWS

Home | Current Version | Previous Version | Graphics & Text | Print | Product List | Glossary On
Versions: 1 2 3 4 5 6 7 8 9 10 11 12 13 14 15 16 17 18 19 20 21 22 23 24 25 26 27 28 29 30 31 32
000
FTUS43 KLOT 280100 AAA
TAFORD
TAF AMD
KORD 280109Z 2801/2906 20011G17KT P6SM BKN050 BKN150
     FM280300 21011G16KT P6SM VCSH BKN050
     FM280500 23011KT 6SM SHRA VCTS SCT020 OVC035CB
     FM280900 27013G22KT P6SM SCT020 BKN120
     FM281500 26018G29KT P6SM FEW250
     FM290000 26010KT P6SM FEW035=

USA.gov is the U.S. government's official web portal to all federal, state and local government web resources and services.